Time;durP1;ratioP1;P1;durP2;ratioP2;P2;SDS_P1;SDS_P2;PMS_P1;PMS_P2;Temp;Humidity;BMP_temperature;BMP_pressure;BME280_temperature;BME280_humidity;BME280_pressure;Samples;Min_cycle;Max_cycle;Signal;HPM_P1;HPM_P2
2021/07/07 00:00:32;;;;;;;;;;;18.20;86.30;;;;;;4317154;33;21366;-88
2021/07/07 00:03:03;;;;;;;;;;;18.20;86.20;;;;;;4316338;33;32205;-88
2021/07/07 00:05:31;;;;;;;;;;;18.20;86.20;;;;;;4317304;33;20013;-88
2021/07/07 00:07:58;;;;;;;;;;;18.20;86.30;;;;;;4304285;33;39128;-88
2021/07/07 00:10:27;;;;;;;;;;;18.20;86.30;;;;;;4303830;33;38380;-87
2021/07/07 00:12:58;;;;;;;;;;;18.10;86.30;;;;;;4328243;33;36497;-87
2021/07/07 00:15:27;;;;;;;;;;;18.10;86.30;;;;;;4303968;33;35155;-85
2021/07/07 00:17:55;;;;;;;;;;;18.10;86.50;;;;;;4303184;33;44065;-85
2021/07/07 00:20:22;;;;;;;;;;;18.00;86.60;;;;;;4316397;33;20415;-85
2021/07/07 00:22:49;;;;;;;;;;;17.90;86.70;;;;;;4315992;33;34381;-84
2021/07/07 00:25:16;;;;;;;;;;;17.90;86.80;;;;;;4315782;33;30741;-84
2021/07/07 00:27:46;;;;;;;;;;;17.90;86.80;;;;;;4315776;33;38955;-87
2021/07/07 00:30:14;;;;;;;;;;;17.80;87.00;;;;;;4315780;33;32122;-83
2021/07/07 00:32:44;;;;;;;;;;;17.80;87.10;;;;;;4317555;33;20029;-85
2021/07/07 00:35:12;;;;;;;;;;;17.70;87.20;;;;;;4317600;33;20057;-84
2021/07/07 00:37:39;;;;;;;;;;;17.70;87.40;;;;;;4317649;33;20014;-86
2021/07/07 00:40:10;;;;;;;;;;;17.60;87.40;;;;;;4316629;33;20010;-84
2021/07/07 00:42:40;;;;;;;;;;;17.60;87.50;;;;;;4328457;33;20099;-86
2021/07/07 00:45:08;;;;;;;;;;;17.60;87.60;;;;;;4328435;33;20060;-85
2021/07/07 00:47:38;;;;;;;;;;;17.60;87.70;;;;;;4314988;33;39406;-84
2021/07/07 00:50:06;;;;;;;;;;;17.50;87.70;;;;;;4317371;33;20002;-86
2021/07/07 00:52:34;;;;;;;;;;;17.50;87.90;;;;;;4316540;33;20024;-87
2021/07/07 00:55:09;;;;;;;;;;;17.40;87.90;;;;;;4316100;33;20054;-85
2021/07/07 00:57:36;;;;;;;;;;;17.40;88.00;;;;;;4316700;33;20370;-86
2021/07/07 01:00:05;;;;;;;;;;;17.40;88.10;;;;;;4317181;33;20057;-83
2021/07/07 01:02:32;;;;;;;;;;;17.40;88.30;;;;;;4315494;33;20022;-83
2021/07/07 01:05:04;;;;;;;;;;;17.30;88.30;;;;;;4316007;33;20050;-84
2021/07/07 01:07:33;;;;;;;;;;;17.30;88.40;;;;;;4328326;33;20013;-83
2021/07/07 01:10:09;;;;;;;;;;;17.20;88.60;;;;;;4315888;33;20073;-84
2021/07/07 01:12:39;;;;;;;;;;;17.10;88.70;;;;;;4315835;33;21993;-83
2021/07/07 01:15:10;;;;;;;;;;;17.10;88.80;;;;;;4315860;33;20094;-87
2021/07/07 01:17:40;;;;;;;;;;;17.10;88.90;;;;;;4304324;33;20087;-83
2021/07/07 01:20:28;;;;;;;;;;;17.00;89.00;;;;;;4303137;33;43803;-83
2021/07/07 01:22:56;;;;;;;;;;;17.00;89.10;;;;;;4316307;33;20014;-84
2021/07/07 01:25:28;;;;;;;;;;;17.00;89.20;;;;;;4316081;33;20008;-82
2021/07/07 01:28:01;;;;;;;;;;;17.00;89.30;;;;;;4317450;33;20116;-85
2021/07/07 01:30:28;;;;;;;;;;;16.90;89.30;;;;;;4316047;33;44664;-82
2021/07/07 01:32:55;;;;;;;;;;;16.90;89.40;;;;;;4317662;33;39845;-83
2021/07/07 01:35:25;;;;;;;;;;;16.90;89.40;;;;;;4318696;33;20408;-81
2021/07/07 01:37:53;;;;;;;;;;;16.90;89.60;;;;;;4305878;33;27407;-85
2021/07/07 01:40:22;;;;;;;;;;;16.80;89.50;;;;;;4317969;33;40763;-85
2021/07/07 01:42:52;;;;;;;;;;;16.80;89.50;;;;;;4317657;33;41488;-84
2021/07/07 01:45:23;;;;;;;;;;;16.80;89.60;;;;;;4318775;33;20009;-82
2021/07/07 01:47:51;;;;;;;;;;;16.80;89.60;;;;;;4319503;33;24699;-82
2021/07/07 01:50:20;;;;;;;;;;;16.90;89.70;;;;;;4319010;33;38028;-84
2021/07/07 01:52:48;;;;;;;;;;;16.80;89.70;;;;;;4318717;33;20014;-83
2021/07/07 01:55:16;;;;;;;;;;;16.80;89.70;;;;;;4317345;33;41528;-83
2021/07/07 01:57:44;;;;;;;;;;;16.80;89.70;;;;;;4317338;33;43732;-84
2021/07/07 02:00:23;;;;;;;;;;;16.80;89.80;;;;;;4317158;33;44463;-83
2021/07/07 02:02:50;;;;;;;;;;;16.80;89.80;;;;;;4329535;33;40995;-84
2021/07/07 02:05:19;;;;;;;;;;;16.80;89.90;;;;;;4317491;33;36490;-82
2021/07/07 02:07:46;;;;;;;;;;;16.80;89.80;;;;;;4304877;33;45226;-85
2021/07/07 02:10:15;;;;;;;;;;;16.80;89.80;;;;;;4317325;33;32119;-82
2021/07/07 02:12:42;;;;;;;;;;;16.80;90.00;;;;;;4316930;33;45107;-83
2021/07/07 02:15:13;;;;;;;;;;;16.80;90.10;;;;;;4317301;33;41609;-87
2021/07/07 02:17:42;;;;;;;;;;;16.80;90.50;;;;;;4329659;33;40182;-84
2021/07/07 02:20:11;;;;;;;;;;;16.80;90.10;;;;;;4318002;33;21356;-84
2021/07/07 02:22:44;;;;;;;;;;;16.70;90.20;;;;;;4319602;33;20062;-84
2021/07/07 02:25:13;;;;;;;;;;;16.70;90.20;;;;;;4317882;33;32490;-83
2021/07/07 02:27:40;;;;;;;;;;;16.70;90.20;;;;;;4319327;33;20079;-83
2021/07/07 02:30:13;;;;;;;;;;;16.70;90.20;;;;;;4317510;33;20052;-83
2021/07/07 02:32:40;;;;;;;;;;;16.80;90.20;;;;;;4318488;33;20430;-84
2021/07/07 02:35:12;;;;;;;;;;;16.80;90.20;;;;;;4330284;33;20131;-84
2021/07/07 02:37:40;;;;;;;;;;;16.70;90.10;;;;;;4329321;33;42349;-84
2021/07/07 02:40:07;;;;;;;;;;;16.80;90.20;;;;;;4317966;33;20077;-84
2021/07/07 02:42:35;;;;;;;;;;;16.80;90.30;;;;;;4317376;33;20404;-83
2021/07/07 02:45:03;;;;;;;;;;;16.80;90.30;;;;;;4319004;33;20014;-84
2021/07/07 02:47:34;;;;;;;;;;;16.80;90.30;;;;;;4319356;33;20020;-82
2021/07/07 02:50:03;;;;;;;;;;;16.80;90.30;;;;;;4304837;33;38730;-85
2021/07/07 02:52:33;;;;;;;;;;;16.80;90.40;;;;;;4316824;33;36312;-83
2021/07/07 02:55:00;;;;;;;;;;;16.70;90.40;;;;;;4328448;33;44913;-84
2021/07/07 02:57:56;;;;;;;;;;;16.70;90.40;;;;;;4305700;33;20041;-83
2021/07/07 03:00:21;;;;;;;;;;;16.70;90.40;;;;;;4318677;33;20052;-85
2021/07/07 03:02:48;;;;;;;;;;;16.80;90.30;;;;;;4316728;33;25584;-83
2021/07/07 03:05:18;;;;;;;;;;;16.70;90.30;;;;;;4317309;33;20065;-83
2021/07/07 03:07:45;;;;;;;;;;;16.70;90.40;;;;;;4318757;33;20030;-83
2021/07/07 03:10:13;;;;;;;;;;;16.70;90.30;;;;;;4316631;33;30108;-84
2021/07/07 03:12:43;;;;;;;;;;;16.70;90.30;;;;;;4317942;33;35095;-82
2021/07/07 03:15:11;;;;;;;;;;;16.70;90.30;;;;;;4316977;33;32109;-83
2021/07/07 03:17:42;;;;;;;;;;;16.70;90.40;;;;;;4329759;33;20081;-83
2021/07/07 03:20:13;;;;;;;;;;;16.70;90.40;;;;;;4304481;33;35751;-86
2021/07/07 03:22:40;;;;;;;;;;;16.70;90.30;;;;;;4318775;33;20358;-83
2021/07/07 03:25:08;;;;;;;;;;;16.70;90.40;;;;;;4318674;33;20055;-85
2021/07/07 03:27:35;;;;;;;;;;;16.70;90.40;;;;;;4303791;33;44539;-85
2021/07/07 03:30:04;;;;;;;;;;;16.70;90.40;;;;;;4318069;33;20024;-83
2021/07/07 03:32:34;;;;;;;;;;;16.70;90.50;;;;;;4317634;33;20065;-82
2021/07/07 03:35:04;;;;;;;;;;;16.60;90.80;;;;;;4317745;33;20029;-84
2021/07/07 03:37:32;;;;;;;;;;;16.60;90.60;;;;;;4328483;33;44267;-84
2021/07/07 03:40:02;;;;;;;;;;;16.60;90.60;;;;;;4316951;33;20006;-82
2021/07/07 03:42:29;;;;;;;;;;;16.50;90.70;;;;;;4328652;33;29085;-83
2021/07/07 03:44:59;;;;;;;;;;;16.50;90.70;;;;;;4316960;33;20078;-82
2021/07/07 03:47:26;;;;;;;;;;;16.50;90.60;;;;;;4315756;33;45917;-84
2021/07/07 03:49:54;;;;;;;;;;;16.50;90.70;;;;;;4304062;33;31367;-83
2021/07/07 03:52:21;;;;;;;;;;;16.50;90.70;;;;;;4316775;33;23489;-84
2021/07/07 03:54:50;;;;;;;;;;;16.50;90.70;;;;;;4318240;33;20455;-83
2021/07/07 03:57:20;;;;;;;;;;;16.50;90.70;;;;;;4316800;33;20065;-84
2021/07/07 03:59:48;;;;;;;;;;;16.50;90.70;;;;;;4303740;33;41819;-84
2021/07/07 04:02:21;;;;;;;;;;;16.50;90.80;;;;;;4316035;33;23600;-83
2021/07/07 04:04:51;;;;;;;;;;;16.50;90.70;;;;;;4303922;33;40311;-83
2021/07/07 04:07:18;;;;;;;;;;;16.50;90.70;;;;;;4315923;33;25408;-82
2021/07/07 04:09:48;;;;;;;;;;;16.50;90.70;;;;;;4316293;33;20016;-82
2021/07/07 04:12:18;;;;;;;;;;;16.50;90.80;;;;;;4303663;33;40752;-84
2021/07/07 04:14:45;;;;;;;;;;;16.50;90.70;;;;;;4317135;33;25017;-83
2021/07/07 04:17:15;;;;;;;;;;;16.50;90.80;;;;;;4316024;33;36752;-82
2021/07/07 04:19:46;;;;;;;;;;;16.40;90.80;;;;;;4318008;33;20020;-84
2021/07/07 04:22:13;;;;;;;;;;;16.40;90.80;;;;;;4327643;33;38430;-83
2021/07/07 04:24:40;;;;;;;;;;;16.40;90.80;;;;;;4315304;33;40433;-83
2021/07/07 04:27:13;;;;;;;;;;;16.40;90.80;;;;;;4315699;33;38528;-83
2021/07/07 04:29:43;;;;;;;;;;;16.40;90.90;;;;;;4315039;33;45216;-86
2021/07/07 04:32:10;;;;;;;;;;;16.40;90.90;;;;;;4303385;33;31736;-83
2021/07/07 04:34:41;;;;;;;;;;;16.40;90.90;;;;;;4317016;33;26447;-84
2021/07/07 04:37:08;;;;;;;;;;;16.40;90.90;;;;;;4316117;33;27784;-82
2021/07/07 04:39:35;;;;;;;;;;;16.40;90.90;;;;;;4303175;33;34493;-84
2021/07/07 04:42:05;;;;;;;;;;;16.40;90.90;;;;;;4316523;33;20061;-86
2021/07/07 04:44:32;;;;;;;;;;;16.40;91.00;;;;;;4315855;33;22228;-83
2021/07/07 04:47:02;;;;;;;;;;;16.40;91.00;;;;;;4302849;33;41816;-82
2021/07/07 04:49:29;;;;;;;;;;;16.40;91.00;;;;;;4315063;33;37099;-83
2021/07/07 04:51:59;;;;;;;;;;;16.40;91.00;;;;;;4316123;33;42562;-82
2021/07/07 04:54:31;;;;;;;;;;;16.40;91.20;;;;;;4304261;33;20478;-84
2021/07/07 04:57:02;;;;;;;;;;;16.40;91.30;;;;;;4304528;33;20121;-85
2021/07/07 04:59:29;;;;;;;;;;;16.40;91.30;;;;;;4315942;33;20021;-82
2021/07/07 05:01:56;;;;;;;;;;;16.30;91.20;;;;;;4316369;33;42413;-84
2021/07/07 05:04:26;;;;;;;;;;;16.30;91.30;;;;;;4305948;33;28375;-82
2021/07/07 05:06:56;;;;;;;;;;;16.40;91.70;;;;;;4317246;33;38281;-81
2021/07/07 05:09:26;;;;;;;;;;;16.40;91.30;;;;;;4330891;33;20024;-83
2021/07/07 05:12:00;;;;;;;;;;;16.40;91.40;;;;;;4306191;33;20006;-84
2021/07/07 05:14:30;;;;;;;;;;;16.40;91.40;;;;;;4330999;33;44205;-84
2021/07/07 05:16:59;;;;;;;;;;;16.40;91.40;;;;;;4317011;33;43083;-82
2021/07/07 05:19:30;;;;;;;;;;;16.40;91.40;;;;;;4318104;33;24352;-84
2021/07/07 05:21:57;;;;;;;;;;;16.40;91.40;;;;;;4331550;33;20005;-84
2021/07/07 05:24:28;;;;;;;;;;;16.40;91.40;;;;;;4318912;33;20324;-83
2021/07/07 05:27:01;;;;;;;;;;;16.40;91.50;;;;;;4318096;33;20423;-82
2021/07/07 05:29:32;;;;;;;;;;;16.40;91.40;;;;;;4331942;33;20102;-84
2021/07/07 05:32:02;;;;;;;;;;;16.50;91.50;;;;;;4304948;33;42848;-83
2021/07/07 05:34:32;;;;;;;;;;;16.50;91.40;;;;;;4329503;33;43909;-84
2021/07/07 05:37:02;;;;;;;;;;;16.50;91.50;;;;;;4330821;33;34703;-82
2021/07/07 05:39:29;;;;;;;;;;;16.50;91.50;;;;;;4330556;33;20072;-82
2021/07/07 05:41:57;;;;;;;;;;;16.50;91.40;;;;;;4317616;33;42619;-83
2021/07/07 05:44:29;;;;;;;;;;;16.50;91.40;;;;;;4306110;33;20017;-83
2021/07/07 05:46:56;;;;;;;;;;;16.60;91.40;;;;;;4316872;33;36355;-84
2021/07/07 05:49:27;;;;;;;;;;;16.60;91.40;;;;;;4330498;33;28947;-83
2021/07/07 05:51:57;;;;;;;;;;;16.60;91.40;;;;;;4331268;33;20010;-81
2021/07/07 05:54:27;;;;;;;;;;;16.60;91.40;;;;;;4330200;33;20344;-83
2021/07/07 05:56:54;;;;;;;;;;;16.60;91.50;;;;;;4317022;33;43329;-86
2021/07/07 05:59:21;;;;;;;;;;;16.60;91.40;;;;;;4317026;33;44844;-83
2021/07/07 06:01:49;;;;;;;;;;;16.70;91.40;;;;;;4317216;33;23315;-85
2021/07/07 06:04:22;;;;;;;;;;;16.60;91.50;;;;;;4317582;33;20006;-85
2021/07/07 06:06:52;;;;;;;;;;;16.60;91.40;;;;;;4318131;33;23257;-85
2021/07/07 06:09:19;;;;;;;;;;;16.70;91.40;;;;;;4317392;33;28031;-83
2021/07/07 06:11:46;;;;;;;;;;;16.70;91.50;;;;;;4329706;33;33597;-83
2021/07/07 06:14:22;;;;;;;;;;;16.70;91.40;;;;;;4305424;33;30906;-84
2021/07/07 06:16:52;;;;;;;;;;;16.70;91.40;;;;;;4329473;33;38211;-82
2021/07/07 06:19:20;;;;;;;;;;;16.80;91.50;;;;;;4334283;33;20005;-83
2021/07/07 06:21:47;;;;;;;;;;;16.80;91.50;;;;;;4319773;33;27316;-85
2021/07/07 06:24:14;;;;;;;;;;;16.80;91.50;;;;;;4319780;33;41300;-84
2021/07/07 06:26:44;;;;;;;;;;;16.80;91.40;;;;;;4319579;33;36366;-82
2021/07/07 06:29:15;;;;;;;;;;;16.80;91.40;;;;;;4331867;33;42781;-84
2021/07/07 06:31:47;;;;;;;;;;;16.80;91.50;;;;;;4319610;33;39412;-82
2021/07/07 06:34:17;;;;;;;;;;;16.90;91.50;;;;;;4319309;33;37435;-82
2021/07/07 06:36:47;;;;;;;;;;;16.90;91.50;;;;;;4333519;33;26488;-84
2021/07/07 06:39:17;;;;;;;;;;;16.90;91.50;;;;;;4320259;33;19994;-83
2021/07/07 06:41:45;;;;;;;;;;;16.90;91.40;;;;;;4320894;33;20057;-85
2021/07/07 06:44:15;;;;;;;;;;;16.90;91.40;;;;;;4320626;33;20001;-86
2021/07/07 06:46:45;;;;;;;;;;;17.00;91.60;;;;;;4319781;33;25053;-83
2021/07/07 06:49:12;;;;;;;;;;;17.00;91.60;;;;;;4319066;33;44546;-87
2021/07/07 06:51:43;;;;;;;;;;;17.00;91.60;;;;;;4332416;33;20063;-86
2021/07/07 06:54:13;;;;;;;;;;;17.00;91.50;;;;;;4334087;33;20474;-84
2021/07/07 06:56:46;;;;;;;;;;;17.00;91.50;;;;;;4320124;33;20120;-85
2021/07/07 06:59:13;;;;;;;;;;;17.00;91.50;;;;;;4319653;33;25509;-83
2021/07/07 07:01:44;;;;;;;;;;;17.10;91.50;;;;;;4319338;33;25534;-85
2021/07/07 07:04:13;;;;;;;;;;;17.10;91.60;;;;;;4331235;33;31289;-87
2021/07/07 07:06:43;;;;;;;;;;;17.10;91.60;;;;;;4319567;33;33826;-85
2021/07/07 07:09:13;;;;;;;;;;;17.10;91.50;;;;;;4307253;33;34539;-83
2021/07/07 07:11:42;;;;;;;;;;;17.10;91.50;;;;;;4331931;33;20127;-83
2021/07/07 07:14:13;;;;;;;;;;;17.20;91.50;;;;;;4333640;33;20524;-82
2021/07/07 07:16:45;;;;;;;;;;;17.10;91.50;;;;;;4332403;33;22853;-86
2021/07/07 07:19:15;;;;;;;;;;;17.20;91.50;;;;;;4320577;33;20025;-86
2021/07/07 07:21:43;;;;;;;;;;;17.20;91.50;;;;;;4331058;33;46826;-86
2021/07/07 07:24:13;;;;;;;;;;;17.20;91.50;;;;;;4318696;33;41554;-86
2021/07/07 07:26:43;;;;;;;;;;;17.30;91.50;;;;;;4319021;33;32137;-89
2021/07/07 07:29:11;;;;;;;;;;;17.30;91.50;;;;;;4318395;33;31740;-87
2021/07/07 07:31:39;;;;;;;;;;;17.30;91.50;;;;;;4318858;33;32180;-83
2021/07/07 07:34:13;;;;;;;;;;;17.30;91.50;;;;;;4318705;33;31140;-86
2021/07/07 07:36:42;;;;;;;;;;;17.30;91.50;;;;;;4318832;33;37553;-82
2021/07/07 07:39:19;;;;;;;;;;;17.30;91.50;;;;;;4319179;33;25937;-82
2021/07/07 07:41:47;;;;;;;;;;;17.40;91.60;;;;;;4331864;33;20024;-85
2021/07/07 07:44:17;;;;;;;;;;;17.40;91.60;;;;;;4331805;33;29141;-85
2021/07/07 07:46:56;;;;;;;;;;;17.40;91.50;;;;;;4307941;33;19994;-88
2021/07/07 07:49:23;;;;;;;;;;;17.40;91.40;;;;;;4319345;33;28030;-86
2021/07/07 07:51:53;;;;;;;;;;;17.40;91.30;;;;;;4331987;33;36123;-85
2021/07/07 07:54:21;;;;;;;;;;;17.40;91.20;;;;;;4331598;33;20068;-85
2021/07/07 07:56:48;;;;;;;;;;;17.50;91.20;;;;;;4319076;33;27461;-83
2021/07/07 07:59:15;;;;;;;;;;;17.50;91.20;;;;;;4332900;33;20012;-87
2021/07/07 08:01:48;;;;;;;;;;;17.50;91.20;;;;;;4319602;33;20048;-82
2021/07/07 08:04:17;;;;;;;;;;;17.50;91.10;;;;;;4318223;33;34133;-86
2021/07/07 08:06:45;;;;;;;;;;;17.50;91.10;;;;;;4331722;33;20052;-86
2021/07/07 08:09:18;;;;;;;;;;;17.50;91.10;;;;;;4319776;33;20061;-81
2021/07/07 08:11:46;;;;;;;;;;;17.50;91.10;;;;;;4318284;33;23675;-82
2021/07/07 08:14:13;;;;;;;;;;;17.60;91.10;;;;;;4306311;33;30090;-85
2021/07/07 08:16:43;;;;;;;;;;;17.60;91.00;;;;;;4317979;33;42928;-83
2021/07/07 08:19:12;;;;;;;;;;;17.60;90.80;;;;;;4318141;33;43122;-84
2021/07/07 08:21:44;;;;;;;;;;;17.60;90.70;;;;;;4331186;33;20073;-84
2021/07/07 08:24:11;;;;;;;;;;;17.60;90.70;;;;;;4306110;33;36526;-83
2021/07/07 08:26:39;;;;;;;;;;;17.70;90.90;;;;;;4306677;33;20062;-83
2021/07/07 08:29:14;;;;;;;;;;;17.70;90.90;;;;;;4318758;33;20019;-85
2021/07/07 08:31:42;;;;;;;;;;;17.70;90.70;;;;;;4331418;33;20028;-82
2021/07/07 08:34:12;;;;;;;;;;;17.70;90.50;;;;;;4317744;33;42657;-81
2021/07/07 08:36:42;;;;;;;;;;;17.70;90.50;;;;;;4307097;33;20001;-82
2021/07/07 08:39:18;;;;;;;;;;;17.70;90.40;;;;;;4319445;33;20040;-83
2021/07/07 08:41:48;;;;;;;;;;;17.70;90.50;;;;;;4318195;33;20012;-82
2021/07/07 08:44:16;;;;;;;;;;;17.80;90.50;;;;;;4331001;33;20433;-80
2021/07/07 08:46:55;;;;;;;;;;;17.80;90.40;;;;;;4318843;33;20005;-81
2021/07/07 08:49:25;;;;;;;;;;;17.80;90.20;;;;;;4305438;33;38596;-81
2021/07/07 08:51:55;;;;;;;;;;;17.80;90.30;;;;;;4330221;33;31805;-81
2021/07/07 08:54:22;;;;;;;;;;;17.90;90.40;;;;;;4329547;33;44280;-83
2021/07/07 08:56:50;;;;;;;;;;;17.90;90.20;;;;;;4319153;33;20076;-82
2021/07/07 08:59:19;;;;;;;;;;;17.90;90.20;;;;;;4318731;33;20415;-82
2021/07/07 09:01:59;;;;;;;;;;;17.90;90.30;;;;;;4318667;33;20461;-81
2021/07/07 09:04:32;;;;;;;;;;;17.90;90.30;;;;;;4331723;33;20073;-81
2021/07/07 09:07:10;;;;;;;;;;;18.00;90.30;;;;;;4330243;33;35592;-81
2021/07/07 09:09:45;;;;;;;;;;;18.00;90.30;;;;;;4318319;33;20447;-84
2021/07/07 09:12:12;;;;;;;;;;;18.00;90.30;;;;;;4318849;33;20063;-82
2021/07/07 09:14:46;;;;;;;;;;;18.00;90.30;;;;;;4331945;33;20101;-84
2021/07/07 09:17:22;;;;;;;;;;;18.00;90.20;;;;;;4306221;33;20001;-82
2021/07/07 09:19:56;;;;;;;;;;;18.00;90.00;;;;;;4332332;33;20064;-81
2021/07/07 09:22:24;;;;;;;;;;;18.00;90.00;;;;;;4330710;33;20061;-81
2021/07/07 09:25:01;;;;;;;;;;;18.00;90.10;;;;;;4318579;33;20001;-83
2021/07/07 09:27:38;;;;;;;;;;;18.00;90.10;;;;;;4331758;33;20005;-83
2021/07/07 09:30:14;;;;;;;;;;;18.00;90.10;;;;;;4318304;33;20426;-81
2021/07/07 09:32:44;;;;;;;;;;;18.00;90.10;;;;;;4306706;33;19998;-84
2021/07/07 09:35:13;;;;;;;;;;;18.00;90.10;;;;;;4330678;33;19998;-84
2021/07/07 09:37:56;;;;;;;;;;;18.00;90.00;;;;;;4331071;33;26633;-82
2021/07/07 09:40:23;;;;;;;;;;;18.00;90.00;;;;;;4318592;33;20008;-82
2021/07/07 09:42:53;;;;;;;;;;;18.00;90.10;;;;;;4318867;33;20446;-83
2021/07/07 09:45:23;;;;;;;;;;;18.00;90.10;;;;;;4318245;33;20351;-83
2021/07/07 09:47:56;;;;;;;;;;;18.10;89.70;;;;;;4331697;33;20009;-84
2021/07/07 09:50:24;;;;;;;;;;;18.10;89.50;;;;;;4318569;33;20012;-82
2021/07/07 09:52:59;;;;;;;;;;;18.10;89.60;;;;;;4319442;33;20015;-83
2021/07/07 09:55:35;;;;;;;;;;;18.20;89.90;;;;;;4321995;33;20065;-81
2021/07/07 09:58:08;;;;;;;;;;;18.20;89.60;;;;;;4334694;33;20164;-81
2021/07/07 10:00:46;;;;;;;;;;;18.20;89.30;;;;;;4309152;33;19993;-84
2021/07/07 10:03:19;;;;;;;;;;;18.20;89.10;;;;;;4333315;33;20066;-79
2021/07/07 10:05:46;;;;;;;;;;;18.20;89.30;;;;;;4334751;33;20017;-80
2021/07/07 10:08:17;;;;;;;;;;;18.20;89.30;;;;;;4320781;33;20049;-81
2021/07/07 10:10:50;;;;;;;;;;;18.20;89.50;;;;;;4321644;33;20002;-82
2021/07/07 10:13:21;;;;;;;;;;;18.20;89.60;;;;;;4333300;33;20019;-81
2021/07/07 10:15:54;;;;;;;;;;;18.20;89.60;;;;;;4321208;33;20009;-82
2021/07/07 10:18:22;;;;;;;;;;;18.20;89.60;;;;;;4334421;33;20052;-83
2021/07/07 10:20:52;;;;;;;;;;;18.30;89.80;;;;;;4333268;33;20464;-81
2021/07/07 10:23:23;;;;;;;;;;;18.30;89.80;;;;;;4334215;33;20006;-80
2021/07/07 10:26:01;;;;;;;;;;;18.30;89.80;;;;;;4320911;33;20012;-81
2021/07/07 10:28:31;;;;;;;;;;;18.30;89.70;;;;;;4320245;33;19998;-81
2021/07/07 10:31:02;;;;;;;;;;;18.30;89.60;;;;;;4332920;33;20057;-81
2021/07/07 10:33:34;;;;;;;;;;;18.30;89.60;;;;;;4308723;33;20049;-81
2021/07/07 10:36:28;;;;;;;;;;;18.30;89.60;;;;;;4320474;33;19993;-86
2021/07/07 10:38:57;;;;;;;;;;;18.30;89.60;;;;;;4308456;33;19994;-80
2021/07/07 10:41:42;;;;;;;;;;;18.30;89.60;;;;;;4333802;33;20023;-81
2021/07/07 10:44:22;;;;;;;;;;;18.30;89.70;;;;;;4332901;33;20503;-82
2021/07/07 10:46:54;;;;;;;;;;;18.30;89.70;;;;;;4331546;33;43598;-83
2021/07/07 10:49:25;;;;;;;;;;;18.30;89.70;;;;;;4319223;33;46170;-81
2021/07/07 10:51:57;;;;;;;;;;;18.30;89.80;;;;;;4333714;33;20076;-81
2021/07/07 10:54:27;;;;;;;;;;;18.30;89.80;;;;;;4320066;33;25252;-80
2021/07/07 10:56:58;;;;;;;;;;;18.30;89.80;;;;;;4319496;33;44503;-80
2021/07/07 10:59:34;;;;;;;;;;;18.30;89.70;;;;;;4319184;33;45667;-81
2021/07/07 11:02:08;;;;;;;;;;;18.30;89.60;;;;;;4330787;33;44646;-81
2021/07/07 11:04:42;;;;;;;;;;;18.40;89.70;;;;;;4330835;33;26489;-81
2021/07/07 11:07:25;;;;;;;;;;;18.40;89.70;;;;;;4331247;33;36094;-81
2021/07/07 11:09:56;;;;;;;;;;;18.30;89.30;;;;;;4331059;33;44437;-82
2021/07/07 11:12:44;;;;;;;;;;;18.40;89.60;;;;;;4318818;33;39760;-82
2021/07/07 11:15:19;;;;;;;;;;;18.40;89.60;;;;;;4292220;33;37814;-85
2021/07/07 11:17:52;;;;;;;;;;;18.40;89.60;;;;;;4333403;33;20039;-85
2021/07/07 11:20:29;;;;;;;;;;;18.50;89.70;;;;;;4333898;33;20009;-82
2021/07/07 11:23:11;;;;;;;;;;;18.50;89.70;;;;;;4319025;33;33654;-82
2021/07/07 11:25:39;;;;;;;;;;;18.50;89.60;;;;;;4332175;33;20434;-83
2021/07/07 11:28:16;;;;;;;;;;;18.50;89.60;;;;;;4333387;33;20009;-84
2021/07/07 11:30:46;;;;;;;;;;;18.50;89.50;;;;;;4319033;33;43872;-82
2021/07/07 11:33:16;;;;;;;;;;;18.50;89.50;;;;;;4307342;33;20065;-81
2021/07/07 11:35:46;;;;;;;;;;;18.50;89.50;;;;;;4318448;33;36744;-82
2021/07/07 11:38:24;;;;;;;;;;;18.50;89.50;;;;;;4332283;33;39460;-84
2021/07/07 11:40:56;;;;;;;;;;;18.60;89.60;;;;;;4318744;33;32569;-84
2021/07/07 11:43:30;;;;;;;;;;;18.60;89.50;;;;;;4319895;33;19998;-81
2021/07/07 11:46:02;;;;;;;;;;;18.60;89.20;;;;;;4332987;33;20478;-83
2021/07/07 11:48:35;;;;;;;;;;;18.60;89.20;;;;;;4333133;33;20027;-80
2021/07/07 11:51:09;;;;;;;;;;;18.60;89.10;;;;;;4332151;33;20070;-82
2021/07/07 11:53:38;;;;;;;;;;;18.70;89.10;;;;;;4319483;33;20012;-81
2021/07/07 11:56:14;;;;;;;;;;;18.70;88.80;;;;;;4319709;33;20059;-81
2021/07/07 11:58:45;;;;;;;;;;;18.70;89.30;;;;;;4331970;33;20017;-82
2021/07/07 12:01:17;;;;;;;;;;;18.70;88.80;;;;;;4306729;33;20008;-83
2021/07/07 12:03:55;;;;;;;;;;;18.70;88.80;;;;;;4331064;33;20076;-82
2021/07/07 12:06:35;;;;;;;;;;;18.80;89.00;;;;;;4331954;33;20083;-82
2021/07/07 12:09:16;;;;;;;;;;;18.80;88.80;;;;;;4318547;33;26452;-81
2021/07/07 12:11:53;;;;;;;;;;;18.80;88.90;;;;;;4331618;33;19998;-83
2021/07/07 12:14:23;;;;;;;;;;;18.80;88.60;;;;;;4319331;33;20069;-83
2021/07/07 12:16:53;;;;;;;;;;;18.80;88.60;;;;;;4332569;33;20010;-81
2021/07/07 12:19:24;;;;;;;;;;;18.80;88.70;;;;;;4318526;33;36455;-83
2021/07/07 12:21:55;;;;;;;;;;;18.90;88.70;;;;;;4317940;33;44356;-84
2021/07/07 12:24:26;;;;;;;;;;;18.90;88.60;;;;;;4332238;33;20021;-82
2021/07/07 12:27:00;;;;;;;;;;;18.90;88.70;;;;;;4331213;33;19990;-81
2021/07/07 12:29:31;;;;;;;;;;;18.90;88.70;;;;;;4331708;33;20025;-83
2021/07/07 12:32:05;;;;;;;;;;;18.90;88.70;;;;;;4306742;33;20019;-84
2021/07/07 12:34:35;;;;;;;;;;;19.00;88.60;;;;;;4318237;33;36265;-81
2021/07/07 12:37:05;;;;;;;;;;;19.00;88.60;;;;;;4331253;33;40768;-82
2021/07/07 12:39:34;;;;;;;;;;;19.00;88.10;;;;;;4318980;33;20086;-82
2021/07/07 12:42:09;;;;;;;;;;;19.00;87.90;;;;;;4318881;33;20020;-83
2021/07/07 12:44:42;;;;;;;;;;;19.00;88.10;;;;;;4319620;33;20467;-80
2021/07/07 12:47:21;;;;;;;;;;;19.00;88.30;;;;;;4318862;33;19997;-81
2021/07/07 12:49:54;;;;;;;;;;;19.00;88.30;;;;;;4332315;33;20044;-81
2021/07/07 12:52:31;;;;;;;;;;;19.00;88.30;;;;;;4330965;33;19998;-83
2021/07/07 12:55:02;;;;;;;;;;;19.00;87.80;;;;;;4318883;33;20021;-82
2021/07/07 12:57:42;;;;;;;;;;;19.10;88.10;;;;;;4330996;33;20061;-82
2021/07/07 13:00:11;;;;;;;;;;;19.10;88.20;;;;;;4317371;33;45389;-84
2021/07/07 13:02:58;;;;;;;;;;;19.10;87.40;;;;;;4329608;33;39100;-81
2021/07/07 13:05:39;;;;;;;;;;;19.20;87.50;;;;;;4317764;33;44514;-82
2021/07/07 13:08:10;;;;;;;;;;;19.20;87.70;;;;;;4329617;33;43514;-84
2021/07/07 13:10:44;;;;;;;;;;;19.20;86.50;;;;;;4318078;33;35185;-82
2021/07/07 13:13:38;;;;;;;;;;;19.30;87.30;;;;;;4316987;33;44854;-83
2021/07/07 13:16:09;;;;;;;;;;;19.30;87.20;;;;;;4329163;33;44404;-83
2021/07/07 13:18:58;;;;;;;;;;;19.30;86.90;;;;;;4318784;33;20040;-82
2021/07/07 13:21:44;;;;;;;;;;;19.30;87.10;;;;;;4318208;33;20129;-83
2021/07/07 13:24:21;;;;;;;;;;;19.30;87.10;;;;;;4329712;33;43470;-82
2021/07/07 13:26:48;;;;;;;;;;;19.30;87.00;;;;;;4330734;33;29593;-83
2021/07/07 13:29:20;;;;;;;;;;;19.40;87.30;;;;;;4321652;33;46280;-81
2021/07/07 13:32:17;;;;;;;;;;;19.40;87.10;;;;;;4335665;33;20407;-83
2021/07/07 13:34:48;;;;;;;;;;;19.40;86.70;;;;;;4316115;33;41714;-84
2021/07/07 13:37:28;;;;;;;;;;;19.40;86.70;;;;;;4334689;33;32008;-83
2021/07/07 13:39:56;;;;;;;;;;;19.40;87.00;;;;;;4334119;33;39717;-82
2021/07/07 13:42:24;;;;;;;;;;;19.40;86.90;;;;;;4321952;33;38988;-83
2021/07/07 13:44:52;;;;;;;;;;;19.40;86.50;;;;;;4321545;33;46321;-81
2021/07/07 13:47:24;;;;;;;;;;;19.40;86.40;;;;;;4322038;33;38065;-83
2021/07/07 13:49:58;;;;;;;;;;;19.50;86.50;;;;;;4323729;33;20036;-82
2021/07/07 13:52:26;;;;;;;;;;;19.50;86.60;;;;;;4335512;33;20006;-81
2021/07/07 13:54:56;;;;;;;;;;;19.50;86.30;;;;;;4334207;33;45293;-82
2021/07/07 13:57:26;;;;;;;;;;;19.60;86.30;;;;;;4334825;33;20370;-84
2021/07/07 13:59:56;;;;;;;;;;;19.70;86.50;;;;;;4334253;33;44809;-84
2021/07/07 14:02:23;;;;;;;;;;;19.70;86.10;;;;;;4309519;33;43886;-83
2021/07/07 14:04:56;;;;;;;;;;;19.70;86.10;;;;;;4321832;33;36190;-81
2021/07/07 14:07:23;;;;;;;;;;;19.80;86.00;;;;;;4322224;33;40132;-82
2021/07/07 14:09:54;;;;;;;;;;;19.80;86.20;;;;;;4334291;33;42818;-82
2021/07/07 14:12:24;;;;;;;;;;;19.80;85.70;;;;;;4309774;33;35224;-83
2021/07/07 14:14:54;;;;;;;;;;;19.70;85.60;;;;;;4311144;33;20411;-83
2021/07/07 14:17:24;;;;;;;;;;;19.70;85.60;;;;;;4335558;33;33676;-83
2021/07/07 14:19:54;;;;;;;;;;;19.70;85.20;;;;;;4322968;33;19997;-81
2021/07/07 14:22:26;;;;;;;;;;;19.70;85.60;;;;;;4336450;33;20023;-83
2021/07/07 14:24:56;;;;;;;;;;;19.70;85.40;;;;;;4335300;33;20013;-83
2021/07/07 14:27:26;;;;;;;;;;;19.70;85.40;;;;;;4322699;33;35526;-83
2021/07/07 14:29:56;;;;;;;;;;;19.70;85.00;;;;;;4322238;33;29050;-82
2021/07/07 14:32:23;;;;;;;;;;;19.70;85.10;;;;;;4334683;33;27817;-82
2021/07/07 14:34:50;;;;;;;;;;;19.70;85.50;;;;;;4322349;33;39042;-85
2021/07/07 14:37:23;;;;;;;;;;;19.70;85.20;;;;;;4334119;33;35432;-85